createdAt,value
2019-01-25T00:00:18.933Z,112.80
2019-01-25T00:01:18.928Z,152.40
2019-01-25T00:02:18.933Z,147.30
2019-01-25T00:03:18.895Z,88.90
2019-01-25T00:04:18.900Z,87.50
2019-01-25T00:05:18.886Z,73.90
2019-01-25T00:06:18.862Z,77.10
2019-01-25T00:07:18.860Z,95.30
2019-01-25T00:08:18.847Z,76.20
2019-01-25T00:09:18.843Z,69.10
2019-01-25T00:10:18.842Z,65.60
2019-01-25T00:11:18.813Z,69.20
2019-01-25T00:12:18.800Z,68.40
2019-01-25T00:13:18.806Z,64.60
2019-01-25T00:14:18.784Z,66.60
2019-01-25T00:15:18.783Z,62.90
2019-01-25T00:16:18.763Z,61.20
2019-01-25T00:17:18.751Z,64.30
2019-01-25T00:18:18.762Z,64.20
2019-01-25T00:19:18.730Z,64.70
2019-01-25T00:20:18.733Z,64.50
2019-01-25T00:21:18.719Z,62.60
2019-01-25T00:22:18.700Z,63.30
2019-01-25T00:23:18.688Z,65.80
2019-01-25T00:24:18.679Z,62.70
2019-01-25T00:25:18.681Z,66.50
2019-01-25T00:26:18.664Z,65.40
2019-01-25T00:27:18.653Z,63.20
2019-01-25T00:28:18.638Z,66.90
2019-01-25T00:29:18.628Z,65.00
2019-01-25T00:30:18.633Z,61.80
2019-01-25T00:31:18.609Z,64.40
2019-01-25T00:32:18.599Z,62.50
2019-01-25T00:33:18.588Z,63.00
2019-01-25T00:34:18.585Z,63.20
2019-01-25T00:35:18.588Z,63.00
2019-01-25T00:36:18.628Z,62.10
2019-01-25T00:37:18.546Z,61.90
2019-01-25T00:38:18.534Z,62.50
2019-01-25T00:39:18.529Z,58.80
2019-01-25T00:40:18.559Z,63.10
2019-01-25T00:41:18.504Z,65.60
2019-01-25T00:42:18.505Z,65.60
2019-01-25T00:43:18.505Z,62.00
2019-01-25T00:44:18.496Z,63.50
2019-01-25T00:45:18.478Z,65.50
2019-01-25T00:46:18.455Z,65.50
2019-01-25T00:47:18.444Z,66.60
2019-01-25T00:48:18.460Z,63.30
2019-01-25T00:49:18.469Z,67.50
2019-01-25T00:50:18.430Z,61.20
2019-01-25T00:51:18.402Z,62.80
2019-01-25T00:52:18.399Z,63.80
2019-01-25T00:53:18.384Z,62.00
2019-01-25T00:54:18.372Z,65.60
2019-01-25T00:55:18.382Z,64.80
2019-01-25T00:56:18.371Z,63.60
2019-01-25T00:57:18.343Z,65.00
2019-01-25T00:58:18.354Z,63.50
2019-01-25T00:59:18.363Z,62.10
2019-01-25T01:00:18.335Z,65.70
2019-01-25T01:01:18.299Z,66.10
2019-01-25T01:02:18.296Z,63.10
2019-01-25T01:03:18.281Z,66.50
2019-01-25T01:04:18.277Z,65.50
2019-01-25T01:05:18.275Z,65.90
2019-01-25T01:06:18.289Z,65.00
2019-01-25T01:07:18.249Z,62.70
2019-01-25T01:08:18.238Z,64.90
2019-01-25T01:09:18.224Z,67.60
2019-01-25T01:10:18.243Z,65.80
2019-01-25T01:11:18.225Z,64.50
2019-01-25T01:12:18.206Z,63.60
2019-01-25T01:13:18.197Z,65.70
2019-01-25T01:14:18.182Z,62.90
2019-01-25T01:15:18.189Z,61.90
2019-01-25T01:16:18.155Z,63.70
2019-01-25T01:17:18.147Z,65.50
2019-01-25T01:18:18.129Z,62.60
2019-01-25T01:19:18.119Z,62.50
2019-01-25T01:20:18.121Z,62.20
2019-01-25T01:21:18.097Z,61.10
2019-01-25T01:22:18.089Z,59.80
2019-01-25T01:23:18.076Z,63.90
2019-01-25T01:24:18.065Z,61.60
2019-01-25T01:25:18.099Z,57.80
2019-01-25T01:26:18.092Z,61.90
2019-01-25T01:27:18.043Z,61.40
2019-01-25T01:28:18.023Z,62.20
2019-01-25T01:29:18.015Z,62.90
2019-01-25T01:30:18.015Z,62.30
2019-01-25T01:31:17.995Z,64.10
2019-01-25T01:32:17.987Z,61.30
2019-01-25T01:33:17.971Z,64.80
2019-01-25T01:34:17.969Z,64.50
2019-01-25T01:35:17.963Z,59.60
2019-01-25T01:36:17.947Z,62.00
2019-01-25T01:37:17.932Z,63.50
2019-01-25T01:38:17.923Z,61.30
2019-01-25T01:39:17.946Z,59.60
2019-01-25T01:40:22.053Z,64.20
2019-01-25T01:41:17.892Z,65.50
2019-01-25T01:42:17.884Z,62.90
2019-01-25T01:43:17.869Z,63.00
2019-01-25T01:44:17.861Z,64.70
2019-01-25T01:45:17.874Z,62.70
2019-01-25T01:46:17.841Z,64.30
2019-01-25T01:47:17.828Z,61.10
2019-01-25T01:48:17.815Z,60.30
2019-01-25T01:49:17.809Z,59.30
2019-01-25T01:50:17.829Z,60.70
2019-01-25T01:51:17.786Z,63.50
2019-01-25T01:52:17.777Z,62.60
2019-01-25T01:53:17.766Z,64.50
2019-01-25T01:54:17.756Z,63.50
2019-01-25T01:55:17.776Z,60.60
2019-01-25T01:56:17.736Z,64.80
2019-01-25T01:57:17.725Z,60.60
2019-01-25T01:58:17.715Z,62.50
2019-01-25T01:59:17.704Z,58.20
2019-01-25T02:00:17.738Z,62.70
2019-01-25T02:01:17.684Z,61.80
2019-01-25T02:02:17.713Z,59.80
2019-01-25T02:03:17.667Z,59.40
2019-01-25T02:04:17.655Z,59.60
2019-01-25T02:05:17.663Z,59.10
2019-01-25T02:06:17.661Z,59.30
2019-01-25T02:07:17.625Z,62.80
2019-01-25T02:08:17.613Z,61.00
2019-01-25T02:09:17.603Z,59.10
2019-01-25T02:10:17.593Z,61.60
2019-01-25T02:11:17.600Z,62.80
2019-01-25T02:12:17.603Z,62.50
2019-01-25T02:13:17.562Z,58.70
2019-01-25T02:14:17.565Z,59.20
2019-01-25T02:15:17.547Z,60.00
2019-01-25T02:16:17.551Z,61.10
2019-01-25T02:17:17.533Z,63.70
2019-01-25T02:18:17.508Z,60.70
2019-01-25T02:19:17.504Z,62.60
2019-01-25T02:20:17.504Z,56.90
2019-01-25T02:21:17.520Z,58.90
2019-01-25T02:22:17.468Z,57.40
2019-01-25T02:23:17.458Z,59.20
2019-01-25T02:24:17.453Z,61.40
2019-01-25T02:25:17.439Z,61.50
2019-01-25T02:26:17.447Z,61.00
2019-01-25T02:27:17.419Z,64.00
2019-01-25T02:28:17.410Z,64.00
2019-01-25T02:29:17.397Z,61.70
2019-01-25T02:30:17.393Z,61.90
2019-01-25T02:31:17.390Z,62.60
2019-01-25T02:32:17.375Z,61.80
2019-01-25T02:33:17.358Z,58.00
2019-01-25T02:34:17.347Z,63.50
2019-01-25T02:35:17.335Z,61.00
2019-01-25T02:36:17.340Z,59.80
2019-01-25T02:37:17.321Z,62.90
2019-01-25T02:38:17.321Z,62.00
2019-01-25T02:39:17.295Z,60.60
2019-01-25T02:40:17.284Z,62.80
2019-01-25T02:41:17.290Z,60.90
2019-01-25T02:42:17.264Z,59.30
2019-01-25T02:43:17.260Z,63.80
2019-01-25T02:44:17.251Z,62.00
2019-01-25T02:45:17.232Z,62.70
2019-01-25T02:46:17.236Z,59.20
2019-01-25T02:47:17.217Z,57.90
2019-01-25T02:48:17.216Z,58.20
2019-01-25T02:49:17.196Z,57.40
2019-01-25T02:50:17.191Z,57.90
2019-01-25T02:51:17.188Z,57.50
2019-01-25T02:52:17.161Z,57.00
2019-01-25T02:53:17.152Z,59.60
2019-01-25T02:54:17.155Z,59.00
2019-01-25T02:55:17.150Z,59.80
2019-01-25T02:56:17.139Z,58.70
2019-01-25T02:57:17.109Z,58.10
2019-01-25T02:58:17.099Z,61.00
2019-01-25T02:59:17.095Z,62.10
2019-01-25T03:00:17.081Z,58.20
2019-01-25T03:01:17.080Z,57.30
2019-01-25T03:02:17.058Z,59.90
2019-01-25T03:03:17.052Z,59.90
2019-01-25T03:04:17.034Z,59.90
2019-01-25T03:05:17.027Z,62.60
2019-01-25T03:06:17.028Z,58.80
2019-01-25T03:07:17.019Z,57.60
2019-01-25T03:08:17.007Z,60.30
2019-01-25T03:09:16.994Z,54.80
2019-01-25T03:10:17.003Z,58.90
2019-01-25T03:11:16.986Z,57.00
2019-01-25T03:12:16.963Z,55.60
2019-01-25T03:13:16.954Z,56.00
2019-01-25T03:14:16.967Z,59.00
2019-01-25T03:15:16.940Z,59.20
2019-01-25T03:16:16.952Z,60.10
2019-01-25T03:17:16.919Z,57.20
2019-01-25T03:18:16.896Z,59.80
2019-01-25T03:19:16.891Z,55.60
2019-01-25T03:20:16.872Z,54.30
2019-01-25T03:21:16.877Z,59.10
2019-01-25T03:22:16.854Z,55.70
2019-01-25T03:23:16.854Z,57.90
2019-01-25T03:24:16.833Z,56.40
2019-01-25T03:25:16.821Z,54.90
2019-01-25T03:26:16.822Z,56.10
2019-01-25T03:27:16.803Z,53.50
2019-01-25T03:28:16.790Z,56.90
2019-01-25T03:29:16.778Z,57.00
2019-01-25T03:30:16.807Z,58.30
2019-01-25T03:31:16.770Z,56.10
2019-01-25T03:32:16.766Z,60.20
2019-01-25T03:33:16.745Z,57.00
2019-01-25T03:34:16.727Z,53.20
2019-01-25T03:35:16.731Z,53.80
2019-01-25T03:36:16.722Z,57.00
2019-01-25T03:37:16.695Z,53.00
2019-01-25T03:38:16.690Z,55.00
2019-01-25T03:39:16.674Z,56.10
2019-01-25T03:40:16.672Z,55.00
2019-01-25T03:41:16.666Z,53.60
2019-01-25T03:42:16.648Z,55.80
2019-01-25T03:43:16.638Z,57.00
2019-01-25T03:44:16.626Z,56.30
2019-01-25T03:45:16.615Z,54.60
2019-01-25T03:46:16.613Z,53.60
2019-01-25T03:47:16.599Z,56.60
2019-01-25T03:48:16.592Z,56.20
2019-01-25T03:49:16.578Z,57.50
2019-01-25T03:50:16.564Z,57.00
2019-01-25T03:51:16.563Z,58.50
2019-01-25T03:52:16.542Z,57.20
2019-01-25T03:53:16.569Z,57.60
2019-01-25T03:54:16.522Z,57.50
2019-01-25T03:55:16.516Z,54.70
2019-01-25T03:56:16.513Z,56.90
2019-01-25T03:57:16.492Z,56.90
2019-01-25T03:58:16.480Z,59.20
2019-01-25T03:59:16.476Z,60.00
2019-01-25T04:00:16.458Z,55.70
2019-01-25T04:01:16.471Z,58.30
2019-01-25T04:02:16.438Z,61.00
2019-01-25T04:03:16.439Z,59.50
2019-01-25T04:04:16.416Z,59.80
2019-01-25T04:05:16.413Z,60.30
2019-01-25T04:06:16.410Z,63.70
2019-01-25T04:07:16.386Z,61.60
2019-01-25T04:08:16.377Z,62.10
2019-01-25T04:09:16.364Z,57.70
2019-01-25T04:10:16.359Z,61.60
2019-01-25T04:11:16.360Z,60.90
2019-01-25T04:12:16.354Z,60.80
2019-01-25T04:13:16.333Z,60.70
2019-01-25T04:14:16.313Z,61.10
2019-01-25T04:15:16.302Z,60.60
2019-01-25T04:16:16.302Z,57.90
2019-01-25T04:17:16.283Z,60.10
2019-01-25T04:18:16.272Z,59.40
2019-01-25T04:19:16.261Z,59.10
2019-01-25T04:20:16.271Z,64.80
2019-01-25T04:21:16.255Z,61.30
2019-01-25T04:22:16.229Z,59.90
2019-01-25T04:23:16.226Z,63.40
2019-01-25T04:24:16.211Z,62.60
2019-01-25T04:25:16.209Z,63.20
2019-01-25T04:26:16.532Z,61.60
2019-01-25T04:27:16.179Z,61.30
2019-01-25T04:28:16.190Z,66.50
2019-01-25T04:29:16.168Z,60.90
2019-01-25T04:30:16.151Z,61.20
2019-01-25T04:31:16.139Z,61.10
2019-01-25T04:32:16.140Z,57.90
2019-01-25T04:33:16.160Z,59.10
2019-01-25T04:34:16.107Z,62.60
2019-01-25T04:35:16.098Z,59.50
2019-01-25T04:36:16.089Z,60.50
2019-01-25T04:37:16.099Z,61.70
2019-01-25T04:38:16.064Z,62.10
2019-01-25T04:39:16.053Z,61.00
2019-01-25T04:40:16.043Z,61.90
2019-01-25T04:41:16.036Z,57.80
2019-01-25T04:42:16.038Z,60.30
2019-01-25T04:43:16.016Z,63.90
2019-01-25T04:44:16.018Z,61.40
2019-01-25T04:45:15.993Z,58.40
2019-01-25T04:46:15.983Z,60.10
2019-01-25T04:47:15.985Z,60.30
2019-01-25T04:48:15.962Z,61.70
2019-01-25T04:49:15.951Z,64.30
2019-01-25T04:50:15.939Z,65.60
2019-01-25T04:51:15.935Z,65.70
2019-01-25T04:52:15.929Z,65.10
2019-01-25T04:53:15.907Z,66.90
2019-01-25T04:54:15.901Z,67.90
2019-01-25T04:55:15.898Z,69.00
2019-01-25T04:56:15.877Z,64.90
2019-01-25T04:57:15.875Z,70.50
2019-01-25T04:58:15.857Z,69.30
2019-01-25T04:59:15.859Z,70.30
2019-01-25T05:00:15.841Z,65.50
2019-01-25T05:01:15.825Z,69.60
2019-01-25T05:02:15.877Z,66.30
2019-01-25T05:03:15.805Z,71.20
2019-01-25T05:04:15.798Z,68.60
2019-01-25T05:05:15.789Z,69.10
2019-01-25T05:06:15.781Z,68.50
2019-01-25T05:07:15.776Z,67.80
2019-01-25T05:08:16.048Z,64.90
2019-01-25T05:09:15.746Z,68.40
2019-01-25T05:10:15.737Z,67.20
2019-01-25T05:11:19.986Z,66.00
2019-01-25T05:12:15.719Z,68.00
2019-01-25T05:13:15.715Z,68.40
2019-01-25T05:14:15.694Z,69.60
2019-01-25T05:15:15.714Z,68.70
2019-01-25T05:16:15.674Z,72.60
2019-01-25T05:17:15.673Z,71.40
2019-01-25T05:18:15.650Z,70.10
2019-01-25T05:19:15.640Z,70.90
2019-01-25T05:20:15.638Z,70.80
2019-01-25T05:21:15.630Z,68.50
2019-01-25T05:22:15.648Z,68.40
2019-01-25T05:23:15.610Z,69.20
2019-01-25T05:24:15.598Z,70.20
2019-01-25T05:25:15.577Z,68.80
2019-01-25T05:26:15.568Z,73.00
2019-01-25T05:27:15.567Z,68.50
2019-01-25T05:28:15.546Z,70.60
2019-01-25T05:29:15.552Z,68.80
2019-01-25T05:30:15.523Z,70.90
2019-01-25T05:31:15.528Z,69.20
2019-01-25T05:32:15.552Z,71.20
2019-01-25T05:33:15.504Z,68.90
2019-01-25T05:34:15.486Z,71.80
2019-01-25T05:35:15.481Z,72.00
2019-01-25T05:36:15.476Z,72.00
2019-01-25T05:37:15.482Z,73.80
2019-01-25T05:38:15.458Z,73.00
2019-01-25T05:39:15.449Z,71.50
2019-01-25T05:40:15.426Z,73.30
2019-01-25T05:41:15.416Z,73.10
2019-01-25T05:42:15.416Z,74.20
2019-01-25T05:43:15.402Z,75.10
2019-01-25T05:44:15.383Z,72.50
2019-01-25T05:45:15.377Z,75.40
2019-01-25T05:46:15.365Z,75.60
2019-01-25T05:47:15.366Z,74.20
2019-01-25T05:48:15.338Z,74.70
2019-01-25T05:49:15.328Z,72.80
2019-01-25T05:50:15.325Z,76.40
2019-01-25T05:51:15.306Z,74.00
2019-01-25T05:52:15.305Z,73.00
2019-01-25T05:53:15.287Z,71.60
2019-01-25T05:54:15.275Z,74.40
2019-01-25T05:55:15.270Z,71.80
2019-01-25T05:56:15.253Z,73.00
2019-01-25T05:57:15.256Z,72.80
2019-01-25T05:58:15.239Z,75.40
2019-01-25T05:59:15.229Z,73.70
2019-01-25T06:00:15.214Z,75.50
2019-01-25T06:01:15.216Z,72.40
2019-01-25T06:02:15.208Z,73.60
2019-01-25T06:03:15.192Z,72.30
2019-01-25T06:04:15.184Z,73.10
2019-01-25T06:05:15.165Z,73.00
2019-01-25T06:06:15.154Z,72.00
2019-01-25T06:07:15.175Z,72.80
2019-01-25T06:08:15.135Z,76.00
2019-01-25T06:09:15.133Z,74.50
2019-01-25T06:10:15.154Z,70.30
2019-01-25T06:11:15.109Z,73.90
2019-01-25T06:12:15.110Z,77.20
2019-01-25T06:13:15.080Z,75.40
2019-01-25T06:14:15.078Z,74.70
2019-01-25T06:15:15.119Z,74.40
2019-01-25T06:16:15.051Z,80.10
2019-01-25T06:17:15.059Z,72.30
2019-01-25T06:18:15.051Z,72.80
2019-01-25T06:19:15.027Z,73.30
2019-01-25T06:20:15.023Z,75.40
2019-01-25T06:21:15.008Z,72.60
2019-01-25T06:22:15.006Z,74.80
2019-01-25T06:23:14.979Z,70.20
2019-01-25T06:24:14.972Z,70.90
2019-01-25T06:25:14.980Z,70.20
2019-01-25T06:26:14.955Z,72.40
2019-01-25T06:27:14.956Z,75.70
2019-01-25T06:28:14.926Z,75.10
2019-01-25T06:29:14.918Z,73.30
2019-01-25T06:30:14.920Z,75.90
2019-01-25T06:31:14.896Z,77.70
2019-01-25T06:32:14.896Z,74.90
2019-01-25T06:33:14.874Z,77.50
2019-01-25T06:34:14.874Z,77.20
2019-01-25T06:35:14.861Z,79.30
2019-01-25T06:36:14.846Z,76.30
2019-01-25T06:37:15.035Z,75.70
2019-01-25T06:38:14.829Z,76.30
2019-01-25T06:39:14.812Z,75.50
2019-01-25T06:40:14.802Z,75.20
2019-01-25T06:41:14.818Z,73.00
2019-01-25T06:42:14.783Z,78.10
2019-01-25T06:43:14.787Z,75.80
2019-01-25T06:44:14.767Z,74.00
2019-01-25T06:45:14.753Z,74.80
2019-01-25T06:46:14.755Z,77.60
2019-01-25T06:47:14.740Z,76.00
2019-01-25T06:48:14.735Z,75.30
2019-01-25T06:49:14.714Z,77.00
2019-01-25T06:50:14.698Z,76.50
2019-01-25T06:51:14.741Z,76.40
2019-01-25T06:52:14.681Z,78.00
2019-01-25T06:53:14.685Z,77.50
2019-01-25T06:54:14.660Z,77.00
2019-01-25T06:55:14.646Z,76.60
2019-01-25T06:56:14.636Z,79.20
2019-01-25T06:57:14.628Z,77.30
2019-01-25T06:58:14.635Z,78.10
2019-01-25T06:59:14.600Z,80.60
2019-01-25T07:00:14.591Z,77.20
2019-01-25T07:01:14.582Z,77.50
2019-01-25T07:02:14.570Z,77.70
2019-01-25T07:03:14.573Z,81.80
2019-01-25T07:04:14.549Z,77.60
2019-01-25T07:05:14.537Z,80.50
2019-01-25T07:06:14.534Z,82.30
2019-01-25T07:07:14.534Z,82.10
2019-01-25T07:08:14.526Z,79.40
2019-01-25T07:09:14.501Z,82.00
2019-01-25T07:10:14.493Z,80.80
2019-01-25T07:11:14.476Z,79.40
2019-01-25T07:12:14.477Z,79.30
2019-01-25T07:13:14.467Z,80.10
2019-01-25T07:14:14.457Z,79.90
2019-01-25T07:15:14.440Z,77.50
2019-01-25T07:16:14.442Z,79.00
2019-01-25T07:17:14.421Z,77.50
2019-01-25T07:18:14.431Z,76.00
2019-01-25T07:19:14.458Z,76.30
2019-01-25T07:20:14.408Z,77.60
2019-01-25T07:21:14.384Z,72.70
2019-01-25T07:22:14.386Z,76.10
2019-01-25T07:23:14.370Z,77.50
2019-01-25T07:24:14.347Z,75.20
2019-01-25T07:25:14.343Z,74.30
2019-01-25T07:26:14.366Z,74.30
2019-01-25T07:27:14.324Z,75.30
2019-01-25T07:28:14.326Z,74.60
2019-01-25T07:29:14.299Z,74.60
2019-01-25T07:30:14.297Z,71.20
2019-01-25T07:31:14.316Z,74.70
2019-01-25T07:32:14.281Z,80.20
2019-01-25T07:33:14.286Z,75.70
2019-01-25T07:34:14.258Z,79.50
2019-01-25T07:35:14.239Z,73.90
2019-01-25T07:36:14.224Z,76.70
2019-01-25T07:37:14.302Z,74.20
2019-01-25T07:38:14.254Z,77.80
2019-01-25T07:39:14.215Z,75.80
2019-01-25T07:40:14.185Z,71.60
2019-01-25T07:41:14.174Z,71.40
2019-01-25T07:42:14.164Z,71.80
2019-01-25T07:43:14.172Z,73.60
2019-01-25T07:44:14.145Z,71.60
2019-01-25T07:45:14.149Z,71.40
2019-01-25T07:46:14.128Z,74.00
2019-01-25T07:47:14.144Z,69.90
2019-01-25T07:48:14.216Z,76.00
2019-01-25T07:49:14.110Z,71.20
2019-01-25T07:50:14.083Z,72.40
2019-01-25T07:51:14.076Z,72.90
2019-01-25T07:52:14.060Z,67.50
2019-01-25T07:53:14.061Z,72.30
2019-01-25T07:54:14.043Z,80.90
2019-01-25T07:55:14.049Z,75.20
2019-01-25T07:56:14.015Z,73.70
2019-01-25T07:57:14.018Z,72.50
2019-01-25T07:58:14.022Z,75.50
2019-01-25T07:59:14.038Z,74.60
2019-01-25T08:00:14.006Z,75.60
2019-01-25T08:01:13.974Z,71.90
2019-01-25T08:02:13.953Z,68.50
2019-01-25T08:03:14.004Z,64.70
2019-01-25T08:04:14.103Z,64.30
2019-01-25T08:05:13.963Z,65.20
2019-01-25T08:06:13.915Z,66.00
2019-01-25T08:07:13.927Z,70.10
2019-01-25T08:08:13.903Z,69.50
2019-01-25T08:09:13.921Z,68.30
2019-01-25T08:10:13.937Z,67.10
2019-01-25T08:11:13.873Z,64.50
2019-01-25T08:12:13.849Z,62.10
2019-01-25T08:13:13.853Z,60.20
2019-01-25T08:14:13.845Z,64.30
2019-01-25T08:15:13.842Z,65.90
2019-01-25T08:16:13.818Z,60.70
2019-01-25T08:17:13.800Z,60.70
2019-01-25T08:18:13.807Z,57.50
2019-01-25T08:19:13.811Z,59.60
2019-01-25T08:20:13.793Z,57.00
2019-01-25T08:21:13.781Z,56.90
2019-01-25T08:22:13.753Z,57.80
2019-01-25T08:23:13.786Z,59.80
2019-01-25T08:24:13.730Z,57.40
2019-01-25T08:25:13.733Z,58.30
2019-01-25T08:26:15.538Z,57.10
2019-01-25T08:27:13.693Z,56.10
2019-01-25T08:28:13.716Z,53.50
2019-01-25T08:29:13.681Z,55.00
2019-01-25T08:30:13.699Z,56.30
2019-01-25T08:31:13.657Z,55.40
2019-01-25T08:32:13.634Z,57.70
2019-01-25T08:33:13.653Z,57.70
2019-01-25T08:34:13.627Z,54.50
2019-01-25T08:35:13.629Z,60.60
2019-01-25T08:36:13.604Z,62.00
2019-01-25T08:37:13.596Z,63.40
2019-01-25T08:38:13.611Z,61.40
2019-01-25T08:39:13.627Z,64.60
2019-01-25T08:40:13.576Z,61.20
2019-01-25T08:41:13.566Z,64.80
2019-01-25T08:42:15.651Z,67.60
2019-01-25T08:43:13.530Z,68.00
2019-01-25T08:44:13.528Z,65.90
2019-01-25T08:45:13.503Z,65.00
2019-01-25T08:46:13.555Z,63.80
2019-01-25T08:47:13.655Z,67.50
2019-01-25T08:48:13.489Z,67.80
2019-01-25T08:49:13.485Z,66.70
2019-01-25T08:50:13.481Z,66.00
2019-01-25T08:51:13.448Z,68.40
2019-01-25T08:52:13.462Z,64.70
2019-01-25T08:53:13.446Z,67.80
2019-01-25T08:54:14.282Z,64.70
2019-01-25T08:55:13.442Z,67.60
2019-01-25T08:56:13.449Z,64.10
2019-01-25T08:57:13.391Z,64.20
2019-01-25T08:58:13.422Z,64.10
2019-01-25T08:59:13.416Z,65.20
2019-01-25T09:00:13.358Z,65.60
2019-01-25T09:01:13.351Z,65.50
2019-01-25T09:02:13.373Z,64.20
2019-01-25T09:03:13.338Z,64.50
2019-01-25T09:04:13.392Z,64.00
2019-01-25T09:05:13.341Z,61.40
2019-01-25T09:06:13.294Z,58.70
2019-01-25T09:07:13.282Z,61.90
2019-01-25T09:08:13.277Z,64.20
2019-01-25T09:09:13.280Z,60.10
2019-01-25T09:10:13.264Z,61.10
2019-01-25T09:11:13.243Z,57.70
2019-01-25T09:12:13.254Z,58.10
2019-01-25T09:13:13.224Z,58.20
2019-01-25T09:14:13.220Z,55.40
2019-01-25T09:15:13.246Z,54.20
2019-01-25T09:16:13.189Z,56.10
2019-01-25T09:17:13.182Z,57.50
2019-01-25T09:18:13.167Z,56.80
2019-01-25T09:19:13.178Z,54.30
2019-01-25T09:20:14.512Z,52.50
2019-01-25T09:21:13.183Z,52.00
2019-01-25T09:22:13.135Z,54.80
2019-01-25T09:23:13.122Z,54.30
2019-01-25T09:24:13.117Z,52.00
2019-01-25T09:25:13.100Z,53.60
2019-01-25T09:26:13.089Z,54.80
2019-01-25T09:27:13.071Z,51.60
2019-01-25T09:28:13.073Z,53.80
2019-01-25T09:29:13.065Z,53.60
2019-01-25T09:30:13.044Z,52.20
2019-01-25T09:31:13.036Z,51.40
2019-01-25T09:32:13.019Z,51.50
2019-01-25T09:33:13.009Z,54.30
2019-01-25T09:34:13.008Z,52.20
2019-01-25T09:35:12.981Z,51.80
2019-01-25T09:36:13.000Z,52.30
2019-01-25T09:37:12.961Z,52.40
2019-01-25T09:38:12.949Z,49.50
2019-01-25T09:39:12.952Z,52.00
2019-01-25T09:40:12.928Z,52.20
2019-01-25T09:41:12.933Z,50.40
2019-01-25T09:42:12.910Z,53.50
2019-01-25T09:43:12.900Z,54.60
2019-01-25T09:44:12.910Z,53.20
2019-01-25T09:45:12.900Z,52.80
2019-01-25T09:46:12.865Z,49.90
2019-01-25T09:47:12.862Z,50.40
2019-01-25T09:48:12.850Z,51.80
2019-01-25T09:49:12.870Z,54.90
2019-01-25T09:50:12.825Z,52.40
2019-01-25T09:51:12.815Z,52.50
2019-01-25T09:52:12.821Z,52.00
2019-01-25T09:53:12.798Z,49.60
2019-01-25T09:54:12.791Z,53.20
2019-01-25T09:55:12.773Z,53.00
2019-01-25T09:56:12.774Z,50.50
2019-01-25T09:57:12.757Z,55.50
2019-01-25T09:58:12.738Z,52.00
2019-01-25T09:59:12.743Z,53.90
2019-01-25T10:00:12.716Z,54.90
2019-01-25T10:01:12.712Z,53.70
2019-01-25T10:02:12.699Z,53.10
2019-01-25T10:03:12.690Z,53.10
2019-01-25T10:04:12.702Z,55.00
2019-01-25T10:05:12.679Z,51.90
2019-01-25T10:06:12.661Z,53.20
2019-01-25T10:07:12.652Z,54.30
2019-01-25T10:08:12.634Z,51.70
2019-01-25T10:09:12.682Z,48.50
2019-01-25T10:10:12.618Z,50.70
2019-01-25T10:11:12.613Z,51.80
2019-01-25T10:12:12.600Z,49.30
2019-01-25T10:13:12.582Z,51.70
2019-01-25T10:14:12.585Z,50.80
2019-01-25T10:15:12.562Z,48.40
2019-01-25T10:16:12.586Z,48.20
2019-01-25T10:17:12.550Z,48.10
2019-01-25T10:18:12.543Z,48.70
2019-01-25T10:19:12.543Z,47.90
2019-01-25T10:20:12.511Z,50.10
2019-01-25T10:21:12.501Z,52.90
2019-01-25T10:22:12.489Z,49.50
2019-01-25T10:23:12.481Z,53.90
2019-01-25T10:24:12.478Z,51.00
2019-01-25T10:25:12.459Z,52.30
2019-01-25T10:26:12.448Z,53.10
2019-01-25T10:27:12.437Z,50.10
2019-01-25T10:28:12.428Z,53.50
2019-01-25T10:29:12.431Z,49.00
2019-01-25T10:30:12.405Z,53.60
2019-01-25T10:31:12.398Z,53.30
2019-01-25T10:32:12.388Z,52.10
2019-01-25T10:33:12.379Z,49.40
2019-01-25T10:34:12.382Z,53.00
2019-01-25T10:35:12.359Z,49.90
2019-01-25T10:36:12.350Z,51.30
2019-01-25T10:37:12.337Z,49.90
2019-01-25T10:38:12.474Z,51.90
2019-01-25T10:39:12.325Z,51.50
2019-01-25T10:40:12.305Z,53.40
2019-01-25T10:41:12.296Z,52.10
2019-01-25T10:42:12.283Z,52.60
2019-01-25T10:43:12.272Z,51.10
2019-01-25T10:44:12.302Z,48.60
2019-01-25T10:45:12.250Z,50.50
2019-01-25T10:46:12.238Z,48.50
2019-01-25T10:47:12.230Z,50.10
2019-01-25T10:48:12.223Z,47.00
2019-01-25T10:49:12.230Z,45.00
2019-01-25T10:50:12.207Z,45.00
2019-01-25T10:51:12.215Z,48.10
2019-01-25T10:52:12.193Z,44.40
2019-01-25T10:53:12.167Z,48.70
2019-01-25T10:54:12.177Z,48.20
2019-01-25T10:55:12.150Z,47.40
2019-01-25T10:56:12.135Z,46.80
2019-01-25T10:57:12.123Z,48.10
2019-01-25T10:58:12.121Z,47.50
2019-01-25T10:59:12.218Z,47.50
2019-01-25T11:00:12.096Z,47.00
2019-01-25T11:01:12.136Z,49.00
2019-01-25T11:02:12.076Z,49.50
2019-01-25T11:03:12.139Z,46.40
2019-01-25T11:04:12.097Z,49.20
2019-01-25T11:05:12.054Z,48.70
2019-01-25T11:06:12.044Z,50.50
2019-01-25T11:07:12.043Z,46.70
2019-01-25T11:08:12.020Z,45.70
2019-01-25T11:09:12.068Z,49.20
2019-01-25T11:10:11.997Z,47.80
2019-01-25T11:11:12.024Z,48.50
2019-01-25T11:12:11.987Z,46.20
2019-01-25T11:13:11.969Z,46.30
2019-01-25T11:14:11.975Z,48.00
2019-01-25T11:15:11.982Z,48.80
2019-01-25T11:16:12.129Z,47.80
2019-01-25T11:17:11.940Z,51.10
2019-01-25T11:18:11.911Z,48.00
2019-01-25T11:19:11.910Z,45.70
2019-01-25T11:20:11.918Z,47.80
2019-01-25T11:21:11.892Z,49.30
2019-01-25T11:22:11.876Z,48.80
2019-01-25T11:23:11.866Z,48.30
2019-01-25T11:24:11.854Z,47.80
2019-01-25T11:25:11.887Z,45.80
2019-01-25T11:26:11.826Z,49.10
2019-01-25T11:27:11.823Z,45.70
2019-01-25T11:28:11.815Z,44.20
2019-01-25T11:29:11.796Z,44.90
2019-01-25T11:30:11.810Z,42.50
2019-01-25T11:31:11.775Z,43.60
2019-01-25T11:32:11.760Z,44.60
2019-01-25T11:33:11.769Z,44.60
2019-01-25T11:34:11.755Z,45.10
2019-01-25T11:35:11.741Z,48.20
2019-01-25T11:36:11.717Z,44.90
2019-01-25T11:37:11.708Z,45.90
2019-01-25T11:38:11.697Z,46.80
2019-01-25T11:39:11.689Z,44.60
2019-01-25T11:40:11.688Z,46.00
2019-01-25T11:41:11.669Z,42.00
2019-01-25T11:42:11.654Z,44.20
2019-01-25T11:43:11.645Z,45.90
2019-01-25T11:44:11.637Z,43.20
2019-01-25T11:45:11.667Z,44.00
2019-01-25T11:46:11.619Z,44.10
2019-01-25T11:47:11.614Z,44.70
2019-01-25T11:48:11.592Z,42.10
2019-01-25T11:49:11.585Z,42.00
2019-01-25T11:50:11.585Z,43.70
2019-01-25T11:51:11.563Z,48.10
2019-01-25T11:52:11.552Z,47.00
2019-01-25T11:53:11.543Z,43.00
2019-01-25T11:54:11.583Z,48.10
2019-01-25T11:55:11.539Z,45.90
2019-01-25T11:56:11.509Z,43.50
2019-01-25T11:57:11.514Z,44.20
2019-01-25T11:58:11.516Z,42.70
2019-01-25T11:59:11.483Z,43.60
2019-01-25T12:00:11.482Z,44.20
2019-01-25T12:01:11.456Z,46.10
2019-01-25T12:02:11.449Z,50.80
2019-01-25T12:03:11.438Z,46.40
2019-01-25T12:04:11.430Z,46.00
2019-01-25T12:05:11.435Z,46.90
2019-01-25T12:06:11.408Z,46.70
2019-01-25T12:07:11.400Z,43.90
2019-01-25T12:08:11.384Z,46.80
2019-01-25T12:09:11.377Z,44.60
2019-01-25T12:10:11.412Z,46.30
2019-01-25T12:11:11.354Z,45.30
2019-01-25T12:12:11.347Z,44.80
2019-01-25T12:13:16.044Z,47.20
2019-01-25T12:14:12.325Z,43.70
2019-01-25T12:15:11.625Z,44.00
2019-01-25T12:16:11.305Z,46.90
2019-01-25T12:17:11.297Z,47.90
2019-01-25T12:18:11.278Z,48.70
2019-01-25T12:19:11.270Z,48.10
2019-01-25T12:20:11.275Z,49.70
2019-01-25T12:21:11.246Z,46.80
2019-01-25T12:22:11.254Z,46.90
2019-01-25T12:23:12.107Z,49.20
2019-01-25T12:24:11.217Z,47.00
2019-01-25T12:25:11.220Z,46.60
2019-01-25T12:26:11.194Z,48.10
2019-01-25T12:27:11.185Z,46.90
2019-01-25T12:28:11.180Z,48.90
2019-01-25T12:29:11.165Z,44.60
2019-01-25T12:30:11.166Z,47.00
2019-01-25T12:31:11.181Z,45.40
2019-01-25T12:32:11.141Z,48.00
2019-01-25T12:33:11.124Z,45.20
2019-01-25T12:34:11.112Z,46.20
2019-01-25T12:35:11.116Z,46.30
2019-01-25T12:36:11.090Z,46.70
2019-01-25T12:37:11.084Z,49.10
2019-01-25T12:38:11.074Z,44.00
2019-01-25T12:39:11.059Z,44.00
2019-01-25T12:40:11.060Z,48.70
2019-01-25T12:41:11.051Z,47.20
2019-01-25T12:42:11.072Z,46.30
2019-01-25T12:43:11.022Z,46.00
2019-01-25T12:44:11.012Z,50.10
2019-01-25T12:45:11.007Z,47.80
2019-01-25T12:46:10.985Z,49.30
2019-01-25T12:47:10.989Z,48.40
2019-01-25T12:48:10.981Z,49.50
2019-01-25T12:49:10.961Z,50.10
2019-01-25T12:50:10.958Z,48.90
2019-01-25T12:51:10.950Z,48.70
2019-01-25T12:52:10.959Z,48.80